Time;durP1;ratioP1;P1;durP2;ratioP2;P2;SDS_P1;SDS_P2;PMS_P1;PMS_P2;Temp;Humidity;BMP_temperature;BMP_pressure;BME280_temperature;BME280_humidity;BME280_pressure;Samples;Min_cycle;Max_cycle;Signal;HPM_P1;HPM_P2
2021/06/21 00:00:11;;;;;;;9.40;8.60;;;26.50;95.60;;;;;;3547711;40;20475;-66
2021/06/21 00:02:39;;;;;;;9.47;8.67;;;26.50;95.60;;;;;;3548073;40;20511;-66
2021/06/21 00:05:09;;;;;;;8.97;8.00;;;26.50;95.60;;;;;;3547140;40;21068;-66
2021/06/21 00:07:37;;;;;;;9.40;8.70;;;26.50;95.60;;;;;;3547529;40;20588;-66
2021/06/21 00:10:07;;;;;;;9.17;8.40;;;26.50;95.60;;;;;;3546779;40;20484;-66
2021/06/21 00:12:35;;;;;;;8.30;7.90;;;26.50;95.60;;;;;;3547067;40;20494;-66
2021/06/21 00:15:06;;;;;;;9.50;8.23;;;26.50;95.60;;;;;;3538534;40;20575;-66
2021/06/21 00:17:35;;;;;;;8.53;7.93;;;26.50;95.60;;;;;;3546953;40;20477;-66
2021/06/21 00:20:04;;;;;;;9.20;8.43;;;26.50;95.60;;;;;;3546455;40;20477;-66
2021/06/21 00:22:32;;;;;;;9.00;8.10;;;26.50;95.60;;;;;;3547051;40;20477;-66
2021/06/21 00:25:00;;;;;;;8.97;7.97;;;26.50;95.50;;;;;;3546372;40;20485;-66
2021/06/21 00:27:28;;;;;;;8.23;7.73;;;26.50;95.50;;;;;;3545998;40;20581;-66
2021/06/21 00:29:56;;;;;;;9.00;7.93;;;26.50;95.50;;;;;;3546549;40;20745;-66
2021/06/21 00:32:25;;;;;;;8.80;7.87;;;26.50;95.50;;;;;;3547408;40;20480;-66
2021/06/21 00:34:55;;;;;;;8.70;8.10;;;26.50;95.50;;;;;;3546676;40;20854;-66
2021/06/21 00:37:23;;;;;;;8.20;7.80;;;26.50;95.50;;;;;;3546252;40;20481;-66
2021/06/21 00:39:52;;;;;;;8.27;7.77;;;26.50;95.50;;;;;;3546129;40;20482;-66
2021/06/21 00:42:21;;;;;;;8.13;7.50;;;26.50;95.40;;;;;;3547200;40;20489;-66
2021/06/21 00:44:50;;;;;;;8.83;8.03;;;26.40;95.40;;;;;;3546792;40;21070;-66
2021/06/21 00:47:18;;;;;;;9.30;8.70;;;26.50;95.50;;;;;;3547411;40;20478;-66
2021/06/21 00:49:46;;;;;;;9.13;8.30;;;26.40;95.40;;;;;;3546095;40;20498;-66
2021/06/21 00:52:18;;;;;;;9.03;8.30;;;26.40;95.40;;;;;;3544338;40;20837;-66
2021/06/21 00:54:46;;;;;;;8.30;7.80;;;26.40;95.40;;;;;;3545561;40;20498;-66
2021/06/21 00:57:14;;;;;;;9.27;8.47;;;26.40;95.40;;;;;;3546099;40;20493;-66
2021/06/21 00:59:43;;;;;;;8.97;8.37;;;26.50;95.50;;;;;;3546769;40;20469;-66
2021/06/21 01:02:11;;;;;;;9.10;8.50;;;26.40;95.40;;;;;;3547044;40;20502;-66
2021/06/21 01:04:40;;;;;;;8.70;8.20;;;26.40;95.40;;;;;;3546357;40;20486;-66
2021/06/21 01:07:08;;;;;;;8.83;8.23;;;26.40;95.40;;;;;;3546025;40;20493;-66
2021/06/21 01:09:38;;;;;;;9.07;8.27;;;26.40;95.40;;;;;;3546313;40;20559;-66
2021/06/21 01:12:14;;;;;;;9.27;8.60;;;26.40;95.40;;;;;;3546237;40;20486;-66
2021/06/21 01:14:44;;;;;;;9.00;8.20;;;26.40;95.30;;;;;;3546444;40;20489;-66
2021/06/21 01:17:18;;;;;;;7.93;7.43;;;26.50;95.40;;;;;;3545225;40;20963;-66
2021/06/21 01:20:09;;;;;;;8.47;7.80;;;26.40;95.30;;;;;;3546876;40;20594;-66
2021/06/21 01:23:10;;;;;;;8.53;7.77;;;26.50;95.40;;;;;;3546741;40;20544;-66
2021/06/21 01:25:43;;;;;;;8.13;7.50;;;26.40;95.30;;;;;;3535370;40;20486;-66
2021/06/21 01:28:21;;;;;;;8.27;7.80;;;26.50;95.30;;;;;;3546459;40;20501;-66
2021/06/21 01:31:02;;;;;;;8.43;7.73;;;26.40;95.30;;;;;;3546177;40;20477;-66
2021/06/21 01:33:32;;;;;;;9.03;8.23;;;26.40;95.20;;;;;;3546738;40;20484;-66
2021/06/21 01:36:03;;;;;;;7.87;7.47;;;26.50;95.20;;;;;;3547040;40;20478;-66
2021/06/21 01:38:34;;;;;;;8.60;8.00;;;26.40;95.20;;;;;;3546903;40;20494;-66
2021/06/21 01:41:06;;;;;;;8.10;7.50;;;26.40;95.20;;;;;;3545467;40;20530;-66
2021/06/21 01:43:39;;;;;;;8.67;8.07;;;26.40;95.10;;;;;;3545569;40;20869;-66
2021/06/21 01:46:10;;;;;;;9.33;8.80;;;26.40;95.10;;;;;;3546248;40;20499;-66
2021/06/21 01:48:44;;;;;;;12.67;8.47;;;26.40;95.10;;;;;;3546879;40;20475;-66
2021/06/21 01:51:15;;;;;;;8.80;8.10;;;26.40;95.00;;;;;;3545966;40;20481;-66
2021/06/21 01:53:47;;;;;;;10.03;9.20;;;26.40;95.00;;;;;;3546665;40;20495;-66
2021/06/21 01:56:21;;;;;;;8.20;7.80;;;26.40;95.00;;;;;;3545911;40;20482;-66
2021/06/21 01:58:51;;;;;;;8.80;8.10;;;26.40;95.00;;;;;;3545485;40;20515;-66
2021/06/21 02:01:21;;;;;;;9.50;8.20;;;26.40;94.90;;;;;;3545181;40;20471;-66
2021/06/21 02:03:52;;;;;;;9.77;8.97;;;26.40;94.90;;;;;;3545454;40;21151;-66
2021/06/21 02:06:20;;;;;;;9.27;8.43;;;26.40;94.80;;;;;;3544679;40;20896;-66
2021/06/21 02:08:51;;;;;;;8.93;8.40;;;26.40;94.80;;;;;;3545862;40;20578;-66
2021/06/21 02:11:20;;;;;;;9.03;8.40;;;26.40;94.80;;;;;;3545489;40;20476;-66
2021/06/21 02:13:50;;;;;;;8.97;8.27;;;26.40;95.10;;;;;;3546804;40;20758;-66
2021/06/21 02:16:20;;;;;;;9.27;8.67;;;26.40;94.80;;;;;;3546130;40;20480;-66
2021/06/21 02:18:50;;;;;;;8.80;8.40;;;26.40;94.70;;;;;;3545971;40;20481;-66
2021/06/21 02:21:19;;;;;;;8.20;7.87;;;26.40;94.70;;;;;;3546022;40;20483;-66
2021/06/21 02:23:49;;;;;;;9.20;8.70;;;26.40;94.70;;;;;;3546375;40;20875;-66
2021/06/21 02:26:20;;;;;;;10.43;8.80;;;26.40;94.70;;;;;;3545002;40;20583;-66
2021/06/21 02:28:49;;;;;;;9.50;8.60;;;26.40;94.70;;;;;;3545685;40;20501;-66
2021/06/21 02:31:17;;;;;;;9.80;9.10;;;26.40;94.70;;;;;;3544910;40;20494;-66
2021/06/21 02:33:45;;;;;;;9.40;8.70;;;26.40;94.60;;;;;;3546514;40;20489;-66
2021/06/21 02:36:15;;;;;;;9.00;8.20;;;26.40;94.60;;;;;;3546710;40;20492;-66
2021/06/21 02:38:44;;;;;;;9.50;8.70;;;26.40;94.60;;;;;;3546438;40;20497;-66
2021/06/21 02:41:12;;;;;;;9.57;8.83;;;26.40;94.60;;;;;;3545753;40;20494;-66
2021/06/21 02:43:42;;;;;;;8.80;8.30;;;26.40;94.60;;;;;;3546354;40;20550;-66
2021/06/21 02:46:10;;;;;;;10.20;9.50;;;26.40;94.60;;;;;;3542867;40;20516;-66
2021/06/21 02:48:40;;;;;;;8.70;8.10;;;26.40;94.60;;;;;;3546172;40;21233;-66
2021/06/21 02:51:13;;;;;;;9.40;8.80;;;26.40;94.50;;;;;;3545005;40;20492;-66
2021/06/21 02:53:48;;;;;;;9.67;8.87;;;26.40;94.60;;;;;;3537120;40;20500;-66
2021/06/21 02:56:25;;;;;;;9.30;8.80;;;26.40;94.50;;;;;;3543941;40;20514;-66
2021/06/21 02:59:01;;;;;;;9.60;8.90;;;26.40;94.50;;;;;;3546136;40;20489;-66
2021/06/21 03:01:30;;;;;;;9.50;8.90;;;26.40;94.50;;;;;;3545825;40;20485;-66
2021/06/21 03:03:58;;;;;;;9.67;9.07;;;26.40;94.50;;;;;;3545960;40;20499;-66
2021/06/21 03:06:28;;;;;;;10.80;10.07;;;26.40;94.40;;;;;;3546265;40;20527;-66
2021/06/21 03:08:58;;;;;;;10.47;9.77;;;26.40;94.40;;;;;;3546240;40;20473;-66
2021/06/21 03:11:27;;;;;;;10.50;9.80;;;26.40;94.40;;;;;;3536825;40;20493;-66
2021/06/21 03:13:56;;;;;;;10.13;9.43;;;26.40;94.40;;;;;;3545840;40;20903;-66
2021/06/21 03:16:26;;;;;;;10.23;9.67;;;26.40;94.40;;;;;;3546884;40;20488;-66
2021/06/21 03:18:56;;;;;;;10.87;10.17;;;26.40;94.40;;;;;;3546716;40;20537;-66
2021/06/21 03:21:25;;;;;;;11.23;10.17;;;26.40;94.30;;;;;;3545703;40;20480;-66
2021/06/21 03:23:55;;;;;;;11.60;10.13;;;26.40;94.30;;;;;;3547630;40;20486;-66
2021/06/21 03:26:27;;;;;;;12.80;9.77;;;26.40;94.30;;;;;;3546274;40;20567;-66
2021/06/21 03:28:56;;;;;;;10.57;9.87;;;26.30;94.20;;;;;;3546146;40;20477;-66
2021/06/21 03:31:26;;;;;;;10.03;9.53;;;26.30;94.20;;;;;;3545658;40;20546;-66
2021/06/21 03:33:55;;;;;;;10.17;9.67;;;26.30;94.20;;;;;;3546421;40;20493;-66
2021/06/21 03:36:23;;;;;;;11.17;10.37;;;26.30;94.20;;;;;;3547067;40;20521;-66
2021/06/21 03:38:51;;;;;;;10.47;9.77;;;26.40;94.20;;;;;;3548084;40;20492;-66
2021/06/21 03:41:19;;;;;;;11.23;10.20;;;26.30;94.10;;;;;;3547086;40;20469;-66
2021/06/21 03:43:48;;;;;;;15.70;10.37;;;26.30;94.10;;;;;;3547000;40;20516;-66
2021/06/21 03:46:15;;;;;;;11.27;10.37;;;26.30;94.10;;;;;;3545812;40;20824;-66
2021/06/21 03:48:44;;;;;;;12.60;9.30;;;26.40;94.10;;;;;;3546466;40;20875;-66
2021/06/21 03:51:11;;;;;;;12.97;11.60;;;26.30;94.00;;;;;;3546246;40;20483;-66
2021/06/21 03:53:40;;;;;;;10.53;9.90;;;26.30;94.00;;;;;;3545560;40;20474;-66
2021/06/21 03:56:07;;;;;;;11.60;11.00;;;26.30;93.90;;;;;;3546307;40;20478;-66
2021/06/21 03:58:35;;;;;;;11.37;10.20;;;26.30;93.90;;;;;;3545683;40;20475;-66
2021/06/21 04:01:04;;;;;;;10.93;10.33;;;26.30;93.90;;;;;;3547182;40;20498;-66
2021/06/21 04:03:33;;;;;;;11.07;10.37;;;26.30;93.90;;;;;;3546375;40;20894;-66
2021/06/21 04:06:00;;;;;;;11.50;10.50;;;26.30;93.90;;;;;;3545568;40;20500;-66
2021/06/21 04:08:27;;;;;;;12.00;10.77;;;26.30;93.80;;;;;;3545139;40;20745;-66
2021/06/21 04:10:54;;;;;;;12.17;11.03;;;26.30;93.90;;;;;;3543295;40;20487;-66
2021/06/21 04:13:23;;;;;;;12.30;11.60;;;26.30;93.90;;;;;;3543571;40;20747;-66
2021/06/21 04:15:54;;;;;;;12.10;11.40;;;26.30;93.80;;;;;;3545602;40;20484;-66
2021/06/21 04:18:24;;;;;;;13.30;12.10;;;26.30;93.80;;;;;;3546222;40;20481;-66
2021/06/21 04:20:52;;;;;;;12.60;11.60;;;26.30;93.80;;;;;;3545524;40;20486;-66
2021/06/21 04:23:20;;;;;;;12.73;11.77;;;26.30;93.80;;;;;;3545569;40;20490;-66
2021/06/21 04:25:47;;;;;;;12.87;12.17;;;26.30;93.70;;;;;;3546291;40;20500;-66
2021/06/21 04:28:15;;;;;;;12.77;12.07;;;26.40;93.70;;;;;;3536085;40;20489;-66
2021/06/21 04:30:45;;;;;;;11.90;11.20;;;26.30;93.70;;;;;;3545458;40;20470;-66
2021/06/21 04:33:13;;;;;;;13.00;11.70;;;26.40;93.70;;;;;;3544910;40;20501;-66
2021/06/21 04:35:40;;;;;;;12.57;11.47;;;26.30;93.60;;;;;;3544214;40;20485;-66
2021/06/21 04:38:09;;;;;;;11.87;11.17;;;26.40;93.70;;;;;;3543505;40;20482;-66
2021/06/21 04:40:38;;;;;;;11.97;11.27;;;26.40;93.70;;;;;;3543879;40;20485;-66
2021/06/21 04:43:06;;;;;;;12.10;11.20;;;26.40;93.60;;;;;;3542313;40;20481;-66
2021/06/21 04:45:34;;;;;;;13.37;12.40;;;26.40;93.60;;;;;;3544131;40;20490;-66
2021/06/21 04:48:03;;;;;;;15.07;13.60;;;26.40;93.60;;;;;;3543176;40;20495;-66
2021/06/21 04:50:31;;;;;;;12.10;11.03;;;26.40;93.60;;;;;;3542661;40;20495;-66
2021/06/21 04:53:00;;;;;;;12.00;11.20;;;26.40;93.70;;;;;;3541618;40;20640;-66
2021/06/21 04:55:30;;;;;;;11.47;10.77;;;26.40;93.70;;;;;;3541369;40;20564;-66
2021/06/21 04:57:59;;;;;;;13.03;11.93;;;26.40;93.70;;;;;;3539733;40;20486;-66
2021/06/21 05:00:26;;;;;;;12.90;12.10;;;26.40;93.70;;;;;;3541084;40;21176;-66
2021/06/21 05:02:55;;;;;;;12.93;11.67;;;26.40;93.80;;;;;;3540158;40;20610;-66
2021/06/21 05:05:23;;;;;;;12.47;11.57;;;26.40;93.80;;;;;;3541051;40;20530;-66
2021/06/21 05:07:53;;;;;;;12.13;11.23;;;26.40;93.80;;;;;;3540255;40;20876;-66
2021/06/21 05:10:23;;;;;;;11.43;10.73;;;26.40;93.80;;;;;;3539002;40;20496;-66
2021/06/21 05:12:52;;;;;;;11.67;10.87;;;26.30;93.80;;;;;;3538637;40;20556;-66
2021/06/21 05:15:21;;;;;;;11.43;10.70;;;26.40;93.90;;;;;;3538156;40;20482;-66
2021/06/21 05:17:49;;;;;;;12.03;11.30;;;26.40;93.90;;;;;;3539004;40;20595;-66
2021/06/21 05:20:17;;;;;;;11.63;10.83;;;26.30;94.00;;;;;;3540005;40;20493;-66
2021/06/21 05:22:45;;;;;;;11.73;10.93;;;26.40;94.00;;;;;;3537237;40;20493;-66
2021/06/21 05:25:14;;;;;;;12.13;11.03;;;26.40;94.10;;;;;;3534232;40;21328;-66
2021/06/21 05:27:41;;;;;;;12.33;11.40;;;26.40;94.10;;;;;;3535584;40;20493;-66
2021/06/21 05:30:13;;;;;;;12.70;11.23;;;26.30;94.10;;;;;;3530930;40;20930;-66
2021/06/21 05:32:40;;;;;;;12.27;11.47;;;26.30;94.10;;;;;;3529901;40;21291;-66
2021/06/21 05:35:11;;;;;;;13.03;11.60;;;26.40;94.20;;;;;;3532642;40;20497;-66
2021/06/21 05:37:38;;;;;;;12.17;11.47;;;26.40;94.30;;;;;;3525739;40;20556;-66
2021/06/21 05:40:10;;;;;;;11.60;10.90;;;26.40;94.30;;;;;;3532625;40;20487;-66
2021/06/21 05:42:37;;;;;;;11.90;10.93;;;26.30;94.20;;;;;;3524144;40;20486;-66
2021/06/21 05:45:07;;;;;;;11.77;10.80;;;26.30;94.30;;;;;;3533488;40;20480;-66
2021/06/21 05:47:36;;;;;;;11.43;10.57;;;26.40;94.30;;;;;;3532150;40;20504;-66
2021/06/21 05:50:05;;;;;;;11.83;10.87;;;26.40;94.30;;;;;;3529985;40;20493;-66
2021/06/21 05:52:33;;;;;;;12.77;11.50;;;26.40;94.40;;;;;;3521050;40;20707;-66
2021/06/21 05:55:00;;;;;;;12.20;11.40;;;26.30;94.40;;;;;;3527406;40;20507;-66
2021/06/21 05:57:30;;;;;;;12.97;12.07;;;26.30;94.40;;;;;;3529812;40;20485;-66
2021/06/21 05:59:58;;;;;;;11.80;11.30;;;26.30;94.40;;;;;;3528257;40;20667;-66
2021/06/21 06:02:27;;;;;;;13.50;11.93;;;26.30;94.40;;;;;;3530430;40;20482;-66
2021/06/21 06:04:56;;;;;;;12.20;11.20;;;26.30;94.80;;;;;;3525496;40;20484;-66
2021/06/21 06:07:25;;;;;;;15.10;11.10;;;26.10;94.80;;;;;;3520756;40;20740;-66
2021/06/21 06:09:52;;;;;;;11.97;11.00;;;25.90;94.80;;;;;;3525957;40;20541;-66
2021/06/21 06:12:19;;;;;;;11.80;10.57;;;25.70;95.10;;;;;;3523775;40;20701;-66
2021/06/21 06:14:46;;;;;;;12.20;11.30;;;25.60;95.10;;;;;;3512882;40;20523;-65
2021/06/21 06:17:14;;;;;;;12.30;11.27;;;25.60;95.00;;;;;;3521840;40;21220;-66
2021/06/21 06:19:42;;;;;;;12.43;11.40;;;25.50;95.30;;;;;;3525533;40;20474;-66
2021/06/21 06:22:14;;;;;;;12.00;10.90;;;25.50;95.00;;;;;;3526211;40;20585;-66
2021/06/21 06:24:42;;;;;;;11.23;10.63;;;25.50;95.00;;;;;;3525299;40;21206;-66
2021/06/21 06:27:10;;;;;;;12.23;11.10;;;25.50;95.10;;;;;;3521177;40;20977;-65
2021/06/21 06:29:38;;;;;;;12.13;11.13;;;25.40;94.90;;;;;;3527787;40;20954;-65
2021/06/21 06:32:07;;;;;;;12.20;11.33;;;25.40;95.50;;;;;;3523607;40;20524;-65
2021/06/21 06:34:34;;;;;;;12.20;11.13;;;25.50;95.30;;;;;;3524128;40;20811;-65
2021/06/21 06:37:04;;;;;;;14.20;11.60;;;25.50;95.20;;;;;;3527556;40;20908;-65
2021/06/21 06:39:36;;;;;;;11.80;10.93;;;25.50;95.10;;;;;;3527262;40;20541;-65
2021/06/21 06:42:05;;;;;;;12.40;11.37;;;25.50;95.40;;;;;;3524472;40;20535;-65
2021/06/21 06:44:33;;;;;;;12.40;11.50;;;25.50;95.90;;;;;;3513982;40;21527;-65
2021/06/21 06:47:00;;;;;;;12.50;11.70;;;25.50;95.90;;;;;;3521318;40;20572;-65
2021/06/21 06:49:28;;;;;;;12.33;11.33;;;25.50;95.60;;;;;;3522240;40;20970;-65
2021/06/21 06:51:56;;;;;;;13.10;11.97;;;25.50;95.50;;;;;;3520614;40;20729;-65
2021/06/21 06:54:27;;;;;;;12.93;11.83;;;25.60;95.40;;;;;;3524068;40;20496;-65
2021/06/21 06:56:58;;;;;;;12.80;12.00;;;25.70;95.20;;;;;;3520651;40;20502;-65
2021/06/21 06:59:30;;;;;;;12.90;11.60;;;25.70;95.20;;;;;;3520259;40;20507;-65
2021/06/21 07:01:58;;;;;;;12.37;11.57;;;25.70;95.40;;;;;;3522467;40;20770;-65
2021/06/21 07:04:27;;;;;;;14.80;13.40;;;25.70;95.30;;;;;;3522995;40;20568;-65
2021/06/21 07:06:57;;;;;;;12.83;11.70;;;25.80;95.60;;;;;;3522624;40;20747;-65
2021/06/21 07:09:26;;;;;;;11.70;10.90;;;25.90;95.80;;;;;;3523179;40;21176;-65
2021/06/21 07:11:56;;;;;;;11.53;10.73;;;25.90;95.50;;;;;;3521153;40;20877;-65
2021/06/21 07:14:23;;;;;;;12.13;11.07;;;25.90;95.30;;;;;;3522450;40;20589;-65
2021/06/21 07:16:52;;;;;;;12.37;11.30;;;25.90;95.30;;;;;;3523361;40;20489;-65
2021/06/21 07:19:21;;;;;;;11.43;10.53;;;26.00;95.40;;;;;;3519024;40;20723;-65
2021/06/21 07:21:48;;;;;;;12.13;11.40;;;26.00;95.00;;;;;;3520859;40;20750;-64
2021/06/21 07:24:16;;;;;;;11.60;10.90;;;26.00;95.00;;;;;;3523673;40;20717;-65
2021/06/21 07:26:46;;;;;;;11.23;10.63;;;26.00;95.30;;;;;;3521847;40;20504;-65
2021/06/21 07:29:14;;;;;;;11.30;10.77;;;26.10;95.30;;;;;;3519631;40;20503;-65
2021/06/21 07:31:43;;;;;;;11.77;10.97;;;26.10;95.30;;;;;;3518196;40;21149;-65
2021/06/21 07:34:11;;;;;;;11.40;10.80;;;26.20;95.30;;;;;;3519869;40;21030;-64
2021/06/21 07:36:40;;;;;;;11.97;11.23;;;26.20;95.30;;;;;;3522920;40;21161;-65
2021/06/21 07:39:09;;;;;;;11.97;11.27;;;26.30;95.20;;;;;;3519391;40;20507;-65
2021/06/21 07:41:36;;;;;;;11.33;10.33;;;26.20;95.20;;;;;;3517909;40;20737;-65
2021/06/21 07:44:04;;;;;;;12.53;11.43;;;26.20;94.90;;;;;;3517796;40;20643;-65
2021/06/21 07:46:33;;;;;;;11.90;11.17;;;26.20;94.80;;;;;;3514382;40;20723;-65
2021/06/21 07:49:00;;;;;;;12.03;11.00;;;26.20;94.80;;;;;;3516367;40;20656;-65
2021/06/21 07:51:30;;;;;;;12.10;11.10;;;26.30;94.90;;;;;;3521973;40;20480;-65
2021/06/21 07:53:58;;;;;;;11.57;10.87;;;26.30;94.90;;;;;;3521365;40;21324;-65
2021/06/21 07:56:26;;;;;;;10.93;10.43;;;26.30;94.90;;;;;;3524304;40;20466;-66
2021/06/21 07:58:54;;;;;;;12.27;11.33;;;26.30;94.90;;;;;;3521003;40;20493;-65
2021/06/21 08:01:22;;;;;;;11.70;11.00;;;26.30;94.80;;;;;;3514757;40;20786;-66
2021/06/21 08:03:52;;;;;;;11.13;10.50;;;26.30;94.80;;;;;;3523785;40;20479;-67
2021/06/21 08:06:19;;;;;;;11.00;10.40;;;26.30;94.80;;;;;;3521057;40;20855;-66
2021/06/21 08:08:47;;;;;;;10.80;10.10;;;26.30;94.80;;;;;;3516671;40;20667;-67
2021/06/21 08:11:15;;;;;;;10.57;10.07;;;26.30;94.70;;;;;;3526185;40;20496;-66
2021/06/21 08:13:57;;;;;;;11.57;10.83;;;26.30;94.60;;;;;;3522575;40;20722;-66
2021/06/21 08:16:25;;;;;;;11.40;10.60;;;26.40;94.70;;;;;;3525215;40;20513;-67
2021/06/21 08:18:54;;;;;;;11.37;10.07;;;26.40;94.70;;;;;;3520988;40;20499;-67
2021/06/21 08:21:22;;;;;;;11.20;10.43;;;26.30;94.60;;;;;;3522285;40;20617;-66
2021/06/21 08:23:49;;;;;;;10.60;10.10;;;26.40;94.60;;;;;;3519442;40;20622;-66
2021/06/21 08:26:16;;;;;;;11.63;11.03;;;26.40;94.60;;;;;;3519288;40;20694;-66
2021/06/21 08:28:46;;;;;;;11.93;10.97;;;26.30;94.60;;;;;;3525104;40;20485;-66
2021/06/21 08:31:13;;;;;;;11.40;10.80;;;26.30;94.60;;;;;;3524260;40;20604;-65
2021/06/21 08:33:42;;;;;;;12.13;11.30;;;26.40;94.60;;;;;;3525021;40;20480;-66
2021/06/21 08:36:11;;;;;;;11.93;11.20;;;26.40;94.60;;;;;;3521219;40;21023;-66
2021/06/21 08:38:39;;;;;;;16.33;11.47;;;26.40;94.50;;;;;;3524700;40;20485;-66
2021/06/21 08:41:07;;;;;;;10.73;10.30;;;26.40;94.50;;;;;;3524052;40;20511;-66
2021/06/21 08:43:35;;;;;;;12.33;11.73;;;26.30;94.10;;;;;;3519442;40;20708;-66
2021/06/21 08:46:03;;;;;;;12.40;11.57;;;26.40;94.20;;;;;;3515054;40;20525;-66
2021/06/21 08:48:32;;;;;;;12.80;12.00;;;26.40;94.20;;;;;;3525933;40;20490;-66
2021/06/21 08:51:01;;;;;;;12.30;11.23;;;26.40;94.20;;;;;;3522289;40;20826;-66
2021/06/21 08:53:30;;;;;;;13.23;12.00;;;26.40;94.10;;;;;;3522128;40;20489;-67
2021/06/21 08:55:57;;;;;;;13.07;12.20;;;26.40;94.00;;;;;;3519364;40;21046;-66
2021/06/21 08:58:26;;;;;;;10.80;10.20;;;26.40;94.10;;;;;;3524209;40;20511;-66
2021/06/21 09:00:53;;;;;;;12.57;11.67;;;26.40;94.10;;;;;;3521919;40;20793;-66
2021/06/21 09:03:20;;;;;;;13.00;11.80;;;26.40;94.10;;;;;;3521693;40;20487;-66
2021/06/21 09:05:48;;;;;;;10.80;10.30;;;26.40;94.00;;;;;;3524830;40;20501;-66
2021/06/21 09:08:16;;;;;;;11.87;11.27;;;26.40;93.90;;;;;;3517345;40;20488;-65
2021/06/21 09:10:45;;;;;;;11.57;10.90;;;26.40;93.80;;;;;;3521190;40;20829;-65
2021/06/21 09:13:15;;;;;;;12.90;12.17;;;26.40;93.90;;;;;;3520923;40;20722;-66
2021/06/21 09:15:44;;;;;;;11.83;11.13;;;26.40;93.80;;;;;;3520577;40;20779;-66
2021/06/21 09:18:33;;;;;;;9.90;9.40;;;26.40;93.80;;;;;;3520377;40;20672;-64
2021/06/21 09:21:37;;;;;;;11.23;10.73;;;26.40;93.80;;;;;;3516172;40;20750;-64
2021/06/21 09:24:14;;;;;;;11.67;10.80;;;26.40;93.70;;;;;;3467041;41;21031;-65
2021/06/21 09:26:43;;;;;;;11.80;10.80;;;26.40;93.70;;;;;;3471295;41;20498;-64
2021/06/21 09:29:11;;;;;;;12.20;11.60;;;26.40;93.60;;;;;;3495348;40;21172;-65
2021/06/21 09:31:52;;;;;;;11.93;11.33;;;26.40;93.50;;;;;;3518493;40;20736;-65
2021/06/21 09:34:21;;;;;;;11.47;10.97;;;26.40;93.50;;;;;;3520581;40;20652;-65
2021/06/21 09:36:49;;;;;;;10.10;9.63;;;26.40;93.50;;;;;;3515091;40;20499;-65
2021/06/21 09:39:22;;;;;;;11.77;11.27;;;26.40;93.20;;;;;;3526209;40;20496;-65
2021/06/21 09:42:16;;;;;;;11.80;11.23;;;26.40;93.20;;;;;;3521853;40;20500;-65
2021/06/21 09:44:46;;;;;;;11.27;10.67;;;26.40;93.20;;;;;;3522840;40;20501;-66
2021/06/21 09:47:28;;;;;;;11.30;10.80;;;26.40;93.10;;;;;;3521381;40;20610;-65
2021/06/21 09:50:11;;;;;;;11.00;10.40;;;26.40;92.90;;;;;;3519514;40;20583;-66
2021/06/21 09:52:44;;;;;;;11.07;10.47;;;26.40;92.90;;;;;;3523008;40;20791;-65
2021/06/21 09:55:18;;;;;;;12.10;11.43;;;26.40;92.90;;;;;;3518397;40;20851;-65
2021/06/21 09:57:49;;;;;;;10.30;9.70;;;26.40;92.90;;;;;;3519857;40;20490;-65
2021/06/21 10:00:17;;;;;;;11.17;10.63;;;26.40;92.60;;;;;;3521073;40;20613;-65
2021/06/21 10:02:45;;;;;;;11.10;10.50;;;26.40;92.50;;;;;;3510769;40;20754;-65
2021/06/21 10:05:21;;;;;;;10.90;10.33;;;26.40;92.60;;;;;;3523667;40;20499;-65
2021/06/21 10:07:49;;;;;;;10.20;9.80;;;26.40;92.70;;;;;;3519667;40;20500;-64
2021/06/21 10:10:21;;;;;;;11.33;10.70;;;26.40;92.40;;;;;;3517855;40;20478;-65
2021/06/21 10:12:51;;;;;;;11.40;10.80;;;26.40;92.50;;;;;;3527438;40;20518;-65
2021/06/21 10:15:18;;;;;;;11.30;10.27;;;26.40;92.70;;;;;;3518520;40;20930;-65
2021/06/21 10:17:47;;;;;;;11.03;10.53;;;26.40;92.70;;;;;;3523825;40;20682;-65
2021/06/21 10:20:15;;;;;;;11.57;10.50;;;26.40;92.80;;;;;;3519292;40;20729;-65
2021/06/21 10:22:43;;;;;;;10.87;10.37;;;26.40;92.80;;;;;;3517428;40;20495;-65
2021/06/21 10:25:12;;;;;;;10.77;10.17;;;26.40;92.80;;;;;;3524010;40;20735;-65
2021/06/21 10:27:42;;;;;;;11.80;11.00;;;26.40;92.80;;;;;;3522288;40;20477;-66
2021/06/21 10:30:14;;;;;;;10.97;10.27;;;26.40;92.90;;;;;;3523628;40;20873;-65
2021/06/21 10:32:42;;;;;;;11.20;10.63;;;26.40;92.90;;;;;;3510991;40;20615;-66
2021/06/21 10:35:12;;;;;;;10.80;10.30;;;26.40;92.90;;;;;;3521389;40;20532;-66
2021/06/21 10:37:58;;;;;;;11.23;10.70;;;26.40;92.90;;;;;;3521410;40;21250;-66
2021/06/21 10:40:26;;;;;;;11.40;10.80;;;26.40;92.90;;;;;;3519472;40;20834;-66
2021/06/21 10:42:54;;;;;;;11.20;10.70;;;26.40;92.80;;;;;;3511360;40;20521;-66
2021/06/21 10:45:24;;;;;;;10.90;10.20;;;26.40;92.80;;;;;;3513090;40;20493;-66
2021/06/21 10:48:07;;;;;;;11.07;10.57;;;26.40;92.80;;;;;;3503046;40;20486;-66
2021/06/21 10:50:49;;;;;;;11.17;10.57;;;26.40;92.70;;;;;;3521882;40;20579;-66
2021/06/21 10:53:17;;;;;;;11.73;11.10;;;26.40;92.60;;;;;;3518375;40;20489;-66
2021/06/21 10:55:51;;;;;;;12.40;11.80;;;26.40;92.50;;;;;;3521144;40;20839;-66
2021/06/21 10:58:43;;;;;;;12.40;11.63;;;26.50;92.60;;;;;;3519284;40;20508;-66
2021/06/21 11:01:21;;;;;;;14.03;13.10;;;26.40;92.60;;;;;;3516834;40;20485;-66
2021/06/21 11:03:51;;;;;;;12.57;11.97;;;26.40;92.60;;;;;;3516010;40;20488;-66
2021/06/21 11:06:42;;;;;;;11.77;11.07;;;26.50;92.60;;;;;;3513465;40;20506;-66
2021/06/21 11:09:11;;;;;;;12.10;11.40;;;26.40;92.70;;;;;;3502144;40;20486;-66
2021/06/21 11:11:49;;;;;;;11.73;11.13;;;26.40;92.60;;;;;;3524776;40;20488;-66
2021/06/21 11:14:22;;;;;;;11.27;10.67;;;26.40;92.60;;;;;;3526806;40;20481;-66
2021/06/21 11:17:14;;;;;;;11.77;10.80;;;26.40;92.40;;;;;;3525193;40;20577;-66
2021/06/21 11:19:42;;;;;;;11.43;10.90;;;26.50;92.40;;;;;;3523748;40;20793;-66
2021/06/21 11:22:11;;;;;;;11.30;10.80;;;26.50;92.40;;;;;;3521434;40;20580;-66
2021/06/21 11:24:55;;;;;;;12.27;11.67;;;26.50;92.40;;;;;;3523870;40;20697;-69
2021/06/21 11:27:39;;;;;;;12.03;11.43;;;26.50;92.40;;;;;;3528163;40;20543;-66
2021/06/21 11:30:28;;;;;;;11.27;10.77;;;26.50;92.40;;;;;;3533950;40;20769;-66
2021/06/21 11:33:00;;;;;;;11.70;11.10;;;26.50;92.40;;;;;;3536807;40;20965;-67
2021/06/21 11:35:46;;;;;;;11.67;11.03;;;26.50;92.40;;;;;;3529430;40;20913;-67
2021/06/21 11:38:22;;;;;;;11.80;11.30;;;26.50;92.30;;;;;;3530860;40;21075;-66
2021/06/21 11:41:10;;;;;;;11.93;11.30;;;26.50;92.20;;;;;;3534742;40;20755;-66
2021/06/21 11:43:45;;;;;;;11.53;11.07;;;26.50;92.20;;;;;;3527772;40;20618;-67
2021/06/21 11:46:32;;;;;;;11.70;10.80;;;26.50;92.00;;;;;;3533788;40;20751;-66
2021/06/21 11:49:06;;;;;;;13.23;11.90;;;26.50;92.00;;;;;;3532101;40;20830;-67
2021/06/21 11:51:33;;;;;;;10.97;10.43;;;26.40;90.60;;;;;;3532428;40;20491;-66
2021/06/21 11:54:01;;;;;;;11.67;10.93;;;26.50;90.40;;;;;;3529717;40;21083;-66
2021/06/21 11:56:29;;;;;;;11.17;10.77;;;26.50;90.60;;;;;;3532938;40;20488;-66
2021/06/21 11:58:58;;;;;;;11.60;10.80;;;26.50;90.80;;;;;;3534141;40;20575;-66
2021/06/21 12:01:27;;;;;;;10.40;10.00;;;26.50;90.80;;;;;;3526677;40;20771;-67
2021/06/21 12:03:58;;;;;;;11.27;10.60;;;26.50;90.90;;;;;;3527021;40;20713;-67
2021/06/21 12:06:28;;;;;;;10.97;10.57;;;26.50;90.90;;;;;;3522263;40;20838;-67
2021/06/21 12:08:56;;;;;;;10.63;10.23;;;26.50;91.00;;;;;;3524293;40;20726;-66
2021/06/21 12:11:26;;;;;;;11.03;10.53;;;26.50;91.00;;;;;;3521636;40;20748;-66
2021/06/21 12:13:58;;;;;;;11.60;10.90;;;26.50;90.80;;;;;;3522739;40;20484;-66
2021/06/21 12:16:26;;;;;;;10.63;10.20;;;26.50;90.80;;;;;;3523312;40;20487;-66
2021/06/21 12:18:56;;;;;;;11.40;10.90;;;26.50;90.70;;;;;;3523109;40;20579;-66
2021/06/21 12:21:34;;;;;;;10.80;10.40;;;26.50;90.60;;;;;;3522604;40;20700;-66
2021/06/21 12:24:21;;;;;;;11.27;10.67;;;26.50;90.60;;;;;;3527612;40;20852;-67
2021/06/21 12:26:50;;;;;;;11.23;10.60;;;26.50;90.60;;;;;;3529229;40;21083;-65
2021/06/21 12:29:29;;;;;;;11.23;10.80;;;26.50;90.90;;;;;;3533101;40;20845;-65
2021/06/21 12:32:01;;;;;;;11.63;11.13;;;26.50;90.50;;;;;;3531598;40;20895;-66
2021/06/21 12:34:56;;;;;;;11.43;10.80;;;26.50;90.40;;;;;;3534519;40;20527;-67
2021/06/21 12:37:28;;;;;;;11.37;10.83;;;26.50;90.40;;;;;;3532174;40;20576;-65
2021/06/21 12:39:57;;;;;;;11.43;10.93;;;26.50;90.20;;;;;;3529898;40;20585;-66
2021/06/21 12:42:28;;;;;;;12.03;11.63;;;26.50;90.20;;;;;;3535755;40;20496;-66
2021/06/21 12:44:55;;;;;;;11.87;11.23;;;26.50;90.10;;;;;;3524582;40;20529;-65
2021/06/21 12:47:26;;;;;;;11.93;11.27;;;26.50;90.00;;;;;;3535365;40;21001;-66
2021/06/21 12:49:56;;;;;;;12.83;12.07;;;26.50;90.00;;;;;;3531476;40;20802;-66